sensor_id;sensor_type;location;lat;lon;timestamp;temperature;humidity
27858;DHT22;16852;51.446;6.528;2023-08-17T00:01:02;20.70;99.90
27858;DHT22;16852;51.446;6.528;2023-08-17T00:03:02;20.70;99.90
27858;DHT22;16852;51.446;6.528;2023-08-17T00:05:03;20.70;99.90
27858;DHT22;16852;51.446;6.528;2023-08-17T00:07:06;20.80;99.90
27858;DHT22;16852;51.446;6.528;2023-08-17T00:09:06;20.80;99.90
27858;DHT22;16852;51.446;6.528;2023-08-17T00:11:07;20.80;99.90
27858;DHT22;16852;51.446;6.528;2023-08-17T00:13:07;20.60;99.90
27858;DHT22;16852;51.446;6.528;2023-08-17T00:15:08;20.40;99.90
27858;DHT22;16852;51.446;6.528;2023-08-17T00:17:09;20.40;99.90
27858;DHT22;16852;51.446;6.528;2023-08-17T00:19:10;20.40;99.90
27858;DHT22;16852;51.446;6.528;2023-08-17T00:21:10;20.40;99.90
27858;DHT22;16852;51.446;6.528;2023-08-17T00:23:11;20.40;99.90
27858;DHT22;16852;51.446;6.528;2023-08-17T00:25:13;20.40;99.90
27858;DHT22;16852;51.446;6.528;2023-08-17T00:27:14;20.40;99.90
27858;DHT22;16852;51.446;6.528;2023-08-17T00:29:14;20.40;99.90
27858;DHT22;16852;51.446;6.528;2023-08-17T00:31:15;20.40;99.90
27858;DHT22;16852;51.446;6.528;2023-08-17T00:33:16;20.50;99.90
27858;DHT22;16852;51.446;6.528;2023-08-17T00:35:17;20.50;99.90
27858;DHT22;16852;51.446;6.528;2023-08-17T00:37:17;20.50;99.90
27858;DHT22;16852;51.446;6.528;2023-08-17T00:39:18;20.50;99.90
27858;DHT22;16852;51.446;6.528;2023-08-17T00:41:20;20.50;99.90
27858;DHT22;16852;51.446;6.528;2023-08-17T00:43:21;20.50;99.90
27858;DHT22;16852;51.446;6.528;2023-08-17T00:45:22;20.50;99.90
27858;DHT22;16852;51.446;6.528;2023-08-17T00:47:24;20.50;99.90
27858;DHT22;16852;51.446;6.528;2023-08-17T00:49:28;20.50;99.90
27858;DHT22;16852;51.446;6.528;2023-08-17T00:51:29;20.50;99.90
27858;DHT22;16852;51.446;6.528;2023-08-17T00:53:31;20.40;99.90
27858;DHT22;16852;51.446;6.528;2023-08-17T00:55:33;20.50;99.90
27858;DHT22;16852;51.446;6.528;2023-08-17T00:57:34;20.50;99.90
27858;DHT22;16852;51.446;6.528;2023-08-17T00:59:35;20.40;99.90
27858;DHT22;16852;51.446;6.528;2023-08-17T01:01:37;20.40;99.90
27858;DHT22;16852;51.446;6.528;2023-08-17T01:03:39;20.30;99.90
27858;DHT22;16852;51.446;6.528;2023-08-17T01:05:41;20.20;99.90
27858;DHT22;16852;51.446;6.528;2023-08-17T01:07:41;20.20;99.90
27858;DHT22;16852;51.446;6.528;2023-08-17T01:09:42;20.20;99.90
27858;DHT22;16852;51.446;6.528;2023-08-17T01:11:53;20.20;99.90
27858;DHT22;16852;51.446;6.528;2023-08-17T01:16:24;20.10;99.90
27858;DHT22;16852;51.446;6.528;2023-08-17T01:18:29;19.90;99.90
27858;DHT22;16852;51.446;6.528;2023-08-17T01:20:32;19.90;99.90
27858;DHT22;16852;51.446;6.528;2023-08-17T01:22:34;19.90;99.90
27858;DHT22;16852;51.446;6.528;2023-08-17T01:24:36;19.80;99.90
27858;DHT22;16852;51.446;6.528;2023-08-17T01:26:36;19.80;99.90
27858;DHT22;16852;51.446;6.528;2023-08-17T01:28:37;19.90;99.90
27858;DHT22;16852;51.446;6.528;2023-08-17T01:30:52;19.70;99.90
27858;DHT22;16852;51.446;6.528;2023-08-17T01:33:07;19.60;99.90
27858;DHT22;16852;51.446;6.528;2023-08-17T01:35:20;19.60;99.90
27858;DHT22;16852;51.446;6.528;2023-08-17T01:37:22;19.60;99.90
27858;DHT22;16852;51.446;6.528;2023-08-17T01:39:31;19.60;99.90
27858;DHT22;16852;51.446;6.528;2023-08-17T01:41:33;19.60;99.90
27858;DHT22;16852;51.446;6.528;2023-08-17T01:43:35;19.50;99.90
27858;DHT22;16852;51.446;6.528;2023-08-17T01:45:36;19.60;99.90
27858;DHT22;16852;51.446;6.528;2023-08-17T01:47:36;19.60;99.90
27858;DHT22;16852;51.446;6.528;2023-08-17T01:49:37;19.60;99.90
27858;DHT22;16852;51.446;6.528;2023-08-17T01:51:38;19.50;99.90
27858;DHT22;16852;51.446;6.528;2023-08-17T01:53:38;19.50;99.90
27858;DHT22;16852;51.446;6.528;2023-08-17T01:55:39;19.50;99.90
27858;DHT22;16852;51.446;6.528;2023-08-17T01:57:39;19.60;99.90
27858;DHT22;16852;51.446;6.528;2023-08-17T01:59:41;19.60;99.90
27858;DHT22;16852;51.446;6.528;2023-08-17T02:01:41;19.60;99.90
27858;DHT22;16852;51.446;6.528;2023-08-17T02:03:42;19.70;99.90
27858;DHT22;16852;51.446;6.528;2023-08-17T02:05:46;19.70;99.90
27858;DHT22;16852;51.446;6.528;2023-08-17T02:07:47;19.70;99.90
27858;DHT22;16852;51.446;6.528;2023-08-17T02:09:48;19.70;99.90
27858;DHT22;16852;51.446;6.528;2023-08-17T02:11:48;19.60;99.90
27858;DHT22;16852;51.446;6.528;2023-08-17T02:13:49;19.60;99.90
27858;DHT22;16852;51.446;6.528;2023-08-17T02:15:50;19.70;99.90
27858;DHT22;16852;51.446;6.528;2023-08-17T02:17:50;19.70;99.90
27858;DHT22;16852;51.446;6.528;2023-08-17T02:19:51;19.70;99.90
27858;DHT22;16852;51.446;6.528;2023-08-17T02:21:52;19.70;99.90
27858;DHT22;16852;51.446;6.528;2023-08-17T02:23:52;19.80;99.90
27858;DHT22;16852;51.446;6.528;2023-08-17T02:25:53;19.80;99.90
27858;DHT22;16852;51.446;6.528;2023-08-17T02:27:53;19.80;99.90
27858;DHT22;16852;51.446;6.528;2023-08-17T02:29:54;19.80;99.90
27858;DHT22;16852;51.446;6.528;2023-08-17T02:31:55;19.80;99.90
27858;DHT22;16852;51.446;6.528;2023-08-17T02:33:55;19.80;99.90
27858;DHT22;16852;51.446;6.528;2023-08-17T02:36:00;19.80;99.90
27858;DHT22;16852;51.446;6.528;2023-08-17T02:38:01;19.80;99.90
27858;DHT22;16852;51.446;6.528;2023-08-17T02:40:02;19.90;99.90
27858;DHT22;16852;51.446;6.528;2023-08-17T02:42:04;19.90;99.90
27858;DHT22;16852;51.446;6.528;2023-08-17T02:44:05;19.90;99.90
27858;DHT22;16852;51.446;6.528;2023-08-17T02:46:06;19.90;99.90
27858;DHT22;16852;51.446;6.528;2023-08-17T02:48:07;19.80;99.90
27858;DHT22;16852;51.446;6.528;2023-08-17T02:50:08;19.80;99.90
27858;DHT22;16852;51.446;6.528;2023-08-17T02:52:09;19.90;99.90
27858;DHT22;16852;51.446;6.528;2023-08-17T02:54:10;19.90;99.90
27858;DHT22;16852;51.446;6.528;2023-08-17T02:56:10;19.90;99.90
27858;DHT22;16852;51.446;6.528;2023-08-17T02:58:14;19.80;99.90
27858;DHT22;16852;51.446;6.528;2023-08-17T03:00:14;19.80;99.90
27858;DHT22;16852;51.446;6.528;2023-08-17T03:02:15;19.80;99.90
27858;DHT22;16852;51.446;6.528;2023-08-17T03:04:18;19.90;99.90
27858;DHT22;16852;51.446;6.528;2023-08-17T03:06:19;19.90;99.90
27858;DHT22;16852;51.446;6.528;2023-08-17T03:08:19;19.90;99.90
27858;DHT22;16852;51.446;6.528;2023-08-17T03:10:20;19.90;99.90
27858;DHT22;16852;51.446;6.528;2023-08-17T03:12:21;19.90;99.90
27858;DHT22;16852;51.446;6.528;2023-08-17T03:14:21;19.90;99.90
27858;DHT22;16852;51.446;6.528;2023-08-17T03:16:22;19.90;99.90
27858;DHT22;16852;51.446;6.528;2023-08-17T03:18:22;19.90;99.90
27858;DHT22;16852;51.446;6.528;2023-08-17T03:20:23;19.90;99.90
27858;DHT22;16852;51.446;6.528;2023-08-17T03:22:24;19.90;99.90
27858;DHT22;16852;51.446;6.528;2023-08-17T03:24:24;19.90;99.90
27858;DHT22;16852;51.446;6.528;2023-08-17T03:26:25;19.90;99.90
27858;DHT22;16852;51.446;6.528;2023-08-17T03:28:27;19.90;99.90
27858;DHT22;16852;51.446;6.528;2023-08-17T03:30:27;19.80;99.90
27858;DHT22;16852;51.446;6.528;2023-08-17T03:32:28;19.80;99.90
27858;DHT22;16852;51.446;6.528;2023-08-17T03:34:29;19.70;99.90
27858;DHT22;16852;51.446;6.528;2023-08-17T03:36:29;19.70;99.90
27858;DHT22;16852;51.446;6.528;2023-08-17T03:38:30;19.50;99.90
27858;DHT22;16852;51.446;6.528;2023-08-17T03:40:31;19.50;99.90
27858;DHT22;16852;51.446;6.528;2023-08-17T03:42:34;19.50;99.90
27858;DHT22;16852;51.446;6.528;2023-08-17T03:44:34;19.50;99.90
27858;DHT22;16852;51.446;6.528;2023-08-17T03:46:35;19.50;99.90
27858;DHT22;16852;51.446;6.528;2023-08-17T03:48:36;19.40;99.90
27858;DHT22;16852;51.446;6.528;2023-08-17T03:50:36;19.40;99.90
27858;DHT22;16852;51.446;6.528;2023-08-17T03:52:37;19.40;99.90
27858;DHT22;16852;51.446;6.528;2023-08-17T03:54:37;19.50;99.90
27858;DHT22;16852;51.446;6.528;2023-08-17T03:56:38;19.50;99.90
27858;DHT22;16852;51.446;6.528;2023-08-17T03:58:39;19.50;99.90
27858;DHT22;16852;51.446;6.528;2023-08-17T04:00:39;19.50;99.90
27858;DHT22;16852;51.446;6.528;2023-08-17T04:02:41;19.50;99.90
27858;DHT22;16852;51.446;6.528;2023-08-17T04:04:41;19.40;99.90
27858;DHT22;16852;51.446;6.528;2023-08-17T04:06:42;19.50;99.90
27858;DHT22;16852;51.446;6.528;2023-08-17T04:08:42;19.50;99.90
27858;DHT22;16852;51.446;6.528;2023-08-17T04:10:43;19.50;99.90
27858;DHT22;16852;51.446;6.528;2023-08-17T04:12:44;19.50;99.90
27858;DHT22;16852;51.446;6.528;2023-08-17T04:14:45;19.50;99.90
27858;DHT22;16852;51.446;6.528;2023-08-17T04:16:45;19.50;99.90
27858;DHT22;16852;51.446;6.528;2023-08-17T04:18:46;19.50;99.90
27858;DHT22;16852;51.446;6.528;2023-08-17T04:20:46;19.50;99.90
27858;DHT22;16852;51.446;6.528;2023-08-17T04:22:47;19.50;99.90
27858;DHT22;16852;51.446;6.528;2023-08-17T04:24:47;19.50;99.90
27858;DHT22;16852;51.446;6.528;2023-08-17T04:26:48;19.50;99.90
27858;DHT22;16852;51.446;6.528;2023-08-17T04:28:49;19.50;99.90
27858;DHT22;16852;51.446;6.528;2023-08-17T04:30:49;19.50;99.90
27858;DHT22;16852;51.446;6.528;2023-08-17T04:32:50;19.50;99.90
27858;DHT22;16852;51.446;6.528;2023-08-17T04:34:52;19.50;99.90
27858;DHT22;16852;51.446;6.528;2023-08-17T04:36:53;19.50;99.90
27858;DHT22;16852;51.446;6.528;2023-08-17T04:38:54;19.50;99.90
27858;DHT22;16852;51.446;6.528;2023-08-17T04:40:57;19.50;99.90
27858;DHT22;16852;51.446;6.528;2023-08-17T04:42:58;19.50;99.90
27858;DHT22;16852;51.446;6.528;2023-08-17T04:44:58;19.50;99.90
27858;DHT22;16852;51.446;6.528;2023-08-17T04:46:59;19.50;99.90
27858;DHT22;16852;51.446;6.528;2023-08-17T04:48:59;19.50;99.90
27858;DHT22;16852;51.446;6.528;2023-08-17T04:51:00;19.50;99.90
27858;DHT22;16852;51.446;6.528;2023-08-17T04:53:01;19.50;99.90
27858;DHT22;16852;51.446;6.528;2023-08-17T04:55:03;19.50;99.90
27858;DHT22;16852;51.446;6.528;2023-08-17T04:57:04;19.50;99.90
27858;DHT22;16852;51.446;6.528;2023-08-17T04:59:05;19.40;99.90
27858;DHT22;16852;51.446;6.528;2023-08-17T05:01:09;19.50;99.90
27858;DHT22;16852;51.446;6.528;2023-08-17T05:03:10;19.40;99.90
27858;DHT22;16852;51.446;6.528;2023-08-17T05:05:12;19.40;99.90
27858;DHT22;16852;51.446;6.528;2023-08-17T05:07:13;19.40;99.90
27858;DHT22;16852;51.446;6.528;2023-08-17T05:09:13;19.40;99.90
27858;DHT22;16852;51.446;6.528;2023-08-17T05:11:14;19.50;99.90
27858;DHT22;16852;51.446;6.528;2023-08-17T05:13:15;19.40;99.90
27858;DHT22;16852;51.446;6.528;2023-08-17T05:15:15;19.40;99.90
27858;DHT22;16852;51.446;6.528;2023-08-17T05:17:16;19.40;99.90
27858;DHT22;16852;51.446;6.528;2023-08-17T05:19:16;19.40;99.90
27858;DHT22;16852;51.446;6.528;2023-08-17T05:21:17;19.40;99.90
27858;DHT22;16852;51.446;6.528;2023-08-17T05:23:18;19.40;99.90
27858;DHT22;16852;51.446;6.528;2023-08-17T05:25:18;19.40;99.90
27858;DHT22;16852;51.446;6.528;2023-08-17T05:27:19;19.40;99.90
27858;DHT22;16852;51.446;6.528;2023-08-17T05:29:19;19.40;99.90
27858;DHT22;16852;51.446;6.528;2023-08-17T05:31:20;19.40;99.90
27858;DHT22;16852;51.446;6.528;2023-08-17T05:33:21;19.40;99.90
27858;DHT22;16852;51.446;6.528;2023-08-17T05:35:21;19.40;99.90
27858;DHT22;16852;51.446;6.528;2023-08-17T05:37:22;19.40;99.90
27858;DHT22;16852;51.446;6.528;2023-08-17T05:39:22;19.40;99.90
27858;DHT22;16852;51.446;6.528;2023-08-17T05:41:23;19.40;99.90
27858;DHT22;16852;51.446;6.528;2023-08-17T05:43:24;19.50;99.90
27858;DHT22;16852;51.446;6.528;2023-08-17T05:45:25;19.40;99.90
27858;DHT22;16852;51.446;6.528;2023-08-17T05:47:25;19.40;99.90
27858;DHT22;16852;51.446;6.528;2023-08-17T05:49:29;19.40;99.90
27858;DHT22;16852;51.446;6.528;2023-08-17T05:51:30;19.40;99.90
27858;DHT22;16852;51.446;6.528;2023-08-17T05:53:36;19.40;99.90
27858;DHT22;16852;51.446;6.528;2023-08-17T05:55:36;19.50;99.90
27858;DHT22;16852;51.446;6.528;2023-08-17T05:57:37;19.50;99.90
27858;DHT22;16852;51.446;6.528;2023-08-17T05:59:37;19.50;99.90
27858;DHT22;16852;51.446;6.528;2023-08-17T06:01:38;19.50;99.90
27858;DHT22;16852;51.446;6.528;2023-08-17T06:03:39;19.50;99.90
27858;DHT22;16852;51.446;6.528;2023-08-17T06:05:39;19.60;99.90
27858;DHT22;16852;51.446;6.528;2023-08-17T06:07:41;19.60;99.90
27858;DHT22;16852;51.446;6.528;2023-08-17T06:09:41;19.50;99.90
27858;DHT22;16852;51.446;6.528;2023-08-17T06:11:42;19.60;99.90
27858;DHT22;16852;51.446;6.528;2023-08-17T06:13:42;19.60;99.90
27858;DHT22;16852;51.446;6.528;2023-08-17T06:15:43;19.60;99.90
27858;DHT22;16852;51.446;6.528;2023-08-17T06:17:43;19.60;99.90
27858;DHT22;16852;51.446;6.528;2023-08-17T06:19:44;19.60;99.90
27858;DHT22;16852;51.446;6.528;2023-08-17T06:21:45;19.60;99.90
27858;DHT22;16852;51.446;6.528;2023-08-17T06:23:54;19.60;99.90
27858;DHT22;16852;51.446;6.528;2023-08-17T06:25:58;19.60;99.90
27858;DHT22;16852;51.446;6.528;2023-08-17T06:27:59;19.60;99.90
27858;DHT22;16852;51.446;6.528;2023-08-17T06:29:59;19.60;99.90
27858;DHT22;16852;51.446;6.528;2023-08-17T06:32:00;19.60;99.90
27858;DHT22;16852;51.446;6.528;2023-08-17T06:34:01;19.60;99.90
27858;DHT22;16852;51.446;6.528;2023-08-17T06:36:01;19.70;99.90
27858;DHT22;16852;51.446;6.528;2023-08-17T06:38:02;19.70;99.90
27858;DHT22;16852;51.446;6.528;2023-08-17T06:40:06;19.60;99.90
27858;DHT22;16852;51.446;6.528;2023-08-17T06:42:07;19.60;99.90
27858;DHT22;16852;51.446;6.528;2023-08-17T06:44:10;19.60;99.90
27858;DHT22;16852;51.446;6.528;2023-08-17T06:46:11;19.60;99.90
27858;DHT22;16852;51.446;6.528;2023-08-17T06:48:12;19.60;99.90
27858;DHT22;16852;51.446;6.528;2023-08-17T06:50:13;19.60;99.90
27858;DHT22;16852;51.446;6.528;2023-08-17T06:52:13;19.50;99.90
27858;DHT22;16852;51.446;6.528;2023-08-17T06:54:14;19.60;99.90
27858;DHT22;16852;51.446;6.528;2023-08-17T06:56:15;19.60;99.90
27858;DHT22;16852;51.446;6.528;2023-08-17T06:58:15;19.60;99.90
27858;DHT22;16852;51.446;6.528;2023-08-17T07:00:16;19.70;99.90
27858;DHT22;16852;51.446;6.528;2023-08-17T07:02:20;19.70;99.90
27858;DHT22;16852;51.446;6.528;2023-08-17T07:04:23;19.70;99.90
27858;DHT22;16852;51.446;6.528;2023-08-17T07:06:24;19.70;99.90
27858;DHT22;16852;51.446;6.528;2023-08-17T07:08:29;19.70;99.90
27858;DHT22;16852;51.446;6.528;2023-08-17T07:10:29;19.50;99.90
27858;DHT22;16852;51.446;6.528;2023-08-17T07:12:30;19.40;99.90
27858;DHT22;16852;51.446;6.528;2023-08-17T07:14:31;19.50;99.90
27858;DHT22;16852;51.446;6.528;2023-08-17T07:16:31;19.60;99.90
27858;DHT22;16852;51.446;6.528;2023-08-17T07:18:32;19.50;99.90
27858;DHT22;16852;51.446;6.528;2023-08-17T07:20:33;19.40;99.90
27858;DHT22;16852;51.446;6.528;2023-08-17T07:22:33;19.50;99.90
27858;DHT22;16852;51.446;6.528;2023-08-17T07:24:35;19.50;99.90
27858;DHT22;16852;51.446;6.528;2023-08-17T07:26:42;19.60;99.90
27858;DHT22;16852;51.446;6.528;2023-08-17T07:28:54;19.50;99.90
27858;DHT22;16852;51.446;6.528;2023-08-17T07:30:55;19.60;99.90
27858;DHT22;16852;51.446;6.528;2023-08-17T07:32:55;19.60;99.90
27858;DHT22;16852;51.446;6.528;2023-08-17T07:34:56;19.60;99.90
27858;DHT22;16852;51.446;6.528;2023-08-17T07:36:57;19.60;99.90
27858;DHT22;16852;51.446;6.528;2023-08-17T07:38:58;19.70;99.90
27858;DHT22;16852;51.446;6.528;2023-08-17T07:40:59;19.70;99.90
27858;DHT22;16852;51.446;6.528;2023-08-17T07:42:59;19.70;99.90
27858;DHT22;16852;51.446;6.528;2023-08-17T07:45:02;19.70;99.90
27858;DHT22;16852;51.446;6.528;2023-08-17T07:47:06;19.50;99.90
27858;DHT22;16852;51.446;6.528;2023-08-17T07:49:07;19.40;99.90
27858;DHT22;16852;51.446;6.528;2023-08-17T07:51:07;19.40;99.90
27858;DHT22;16852;51.446;6.528;2023-08-17T07:53:08;19.20;99.90
27858;DHT22;16852;51.446;6.528;2023-08-17T07:55:08;19.40;99.90
27858;DHT22;16852;51.446;6.528;2023-08-17T07:57:09;19.40;99.90
27858;DHT22;16852;51.446;6.528;2023-08-17T07:59:10;19.40;99.90
27858;DHT22;16852;51.446;6.528;2023-08-17T08:01:10;19.30;99.90
27858;DHT22;16852;51.446;6.528;2023-08-17T08:03:11;19.20;99.90
27858;DHT22;16852;51.446;6.528;2023-08-17T08:05:11;19.10;99.90
27858;DHT22;16852;51.446;6.528;2023-08-17T08:07:14;19.10;99.90
27858;DHT22;16852;51.446;6.528;2023-08-17T08:09:15;19.00;99.90
27858;DHT22;16852;51.446;6.528;2023-08-17T08:11:15;19.00;99.90
27858;DHT22;16852;51.446;6.528;2023-08-17T08:13:16;18.90;99.90
27858;DHT22;16852;51.446;6.528;2023-08-17T08:15:17;18.80;99.90
27858;DHT22;16852;51.446;6.528;2023-08-17T08:17:17;19.00;99.90
27858;DHT22;16852;51.446;6.528;2023-08-17T08:19:19;18.90;99.90
27858;DHT22;16852;51.446;6.528;2023-08-17T08:21:20;19.10;99.90
27858;DHT22;16852;51.446;6.528;2023-08-17T08:23:21;19.20;99.90
27858;DHT22;16852;51.446;6.528;2023-08-17T08:25:21;19.30;99.90
27858;DHT22;16852;51.446;6.528;2023-08-17T08:27:22;19.00;99.90
27858;DHT22;16852;51.446;6.528;2023-08-17T08:29:23;19.00;99.90
27858;DHT22;16852;51.446;6.528;2023-08-17T08:31:24;18.90;99.90
27858;DHT22;16852;51.446;6.528;2023-08-17T08:33:24;19.00;99.90
27858;DHT22;16852;51.446;6.528;2023-08-17T08:35:25;19.00;99.90
27858;DHT22;16852;51.446;6.528;2023-08-17T08:37:26;19.00;99.90
27858;DHT22;16852;51.446;6.528;2023-08-17T08:39:27;19.20;99.90
27858;DHT22;16852;51.446;6.528;2023-08-17T08:41:29;19.20;99.90
27858;DHT22;16852;51.446;6.528;2023-08-17T08:43:31;19.30;99.90
27858;DHT22;16852;51.446;6.528;2023-08-17T08:45:32;19.40;99.90
27858;DHT22;16852;51.446;6.528;2023-08-17T08:47:34;19.30;99.90
27858;DHT22;16852;51.446;6.528;2023-08-17T08:49:39;19.30;99.90
27858;DHT22;16852;51.446;6.528;2023-08-17T08:51:44;19.30;99.90
27858;DHT22;16852;51.446;6.528;2023-08-17T08:53:47;19.20;99.90
27858;DHT22;16852;51.446;6.528;2023-08-17T08:55:57;19.30;99.90
27858;DHT22;16852;51.446;6.528;2023-08-17T08:57:59;19.30;99.90
27858;DHT22;16852;51.446;6.528;2023-08-17T08:59:59;19.30;99.90
27858;DHT22;16852;51.446;6.528;2023-08-17T09:02:00;19.30;99.90
27858;DHT22;16852;51.446;6.528;2023-08-17T09:04:01;19.40;99.90
27858;DHT22;16852;51.446;6.528;2023-08-17T09:06:03;19.50;99.90
27858;DHT22;16852;51.446;6.528;2023-08-17T09:08:08;19.60;99.90
27858;DHT22;16852;51.446;6.528;2023-08-17T09:10:10;19.70;99.90
27858;DHT22;16852;51.446;6.528;2023-08-17T09:12:11;19.80;99.90
27858;DHT22;16852;51.446;6.528;2023-08-17T09:14:11;19.80;99.90
27858;DHT22;16852;51.446;6.528;2023-08-17T09:16:12;19.80;99.90
27858;DHT22;16852;51.446;6.528;2023-08-17T09:18:13;19.80;99.90
27858;DHT22;16852;51.446;6.528;2023-08-17T09:20:37;19.80;99.90
27858;DHT22;16852;51.446;6.528;2023-08-17T09:22:42;19.70;99.90
27858;DHT22;16852;51.446;6.528;2023-08-17T09:24:43;19.80;99.90
27858;DHT22;16852;51.446;6.528;2023-08-17T09:26:44;19.80;99.90
27858;DHT22;16852;51.446;6.528;2023-08-17T09:28:45;19.70;99.90
27858;DHT22;16852;51.446;6.528;2023-08-17T09:30:58;19.50;99.90
27858;DHT22;16852;51.446;6.528;2023-08-17T09:33:02;19.40;99.90
27858;DHT22;16852;51.446;6.528;2023-08-17T09:35:03;19.40;99.90
27858;DHT22;16852;51.446;6.528;2023-08-17T09:37:05;19.40;99.90
27858;DHT22;16852;51.446;6.528;2023-08-17T09:39:06;19.40;99.90
27858;DHT22;16852;51.446;6.528;2023-08-17T09:41:07;19.30;99.90
27858;DHT22;16852;51.446;6.528;2023-08-17T09:43:09;19.40;99.90
27858;DHT22;16852;51.446;6.528;2023-08-17T09:45:10;19.50;99.90
27858;DHT22;16852;51.446;6.528;2023-08-17T09:47:10;19.60;99.90
27858;DHT22;16852;51.446;6.528;2023-08-17T09:49:11;19.60;99.90
27858;DHT22;16852;51.446;6.528;2023-08-17T09:51:15;19.70;99.90
27858;DHT22;16852;51.446;6.528;2023-08-17T09:53:18;19.70;99.90
27858;DHT22;16852;51.446;6.528;2023-08-17T09:55:23;19.80;99.90
27858;DHT22;16852;51.446;6.528;2023-08-17T09:57:24;19.90;99.90
27858;DHT22;16852;51.446;6.528;2023-08-17T09:59:25;20.00;99.90
27858;DHT22;16852;51.446;6.528;2023-08-17T10:01:27;20.00;99.90
27858;DHT22;16852;51.446;6.528;2023-08-17T10:03:32;20.00;99.90
27858;DHT22;16852;51.446;6.528;2023-08-17T10:05:37;20.00;99.90
27858;DHT22;16852;51.446;6.528;2023-08-17T10:07:42;20.00;99.90
27858;DHT22;16852;51.446;6.528;2023-08-17T10:09:47;20.00;99.90
27858;DHT22;16852;51.446;6.528;2023-08-17T10:11:52;20.00;99.90
27858;DHT22;16852;51.446;6.528;2023-08-17T10:14:09;19.80;99.90
27858;DHT22;16852;51.446;6.528;2023-08-17T10:16:35;19.70;99.90
27858;DHT22;16852;51.446;6.528;2023-08-17T10:21:02;19.70;99.90
27858;DHT22;16852;51.446;6.528;2023-08-17T10:23:19;19.80;99.90
27858;DHT22;16852;51.446;6.528;2023-08-17T10:25:23;19.70;99.90
27858;DHT22;16852;51.446;6.528;2023-08-17T10:27:24;19.60;99.90
27858;DHT22;16852;51.446;6.528;2023-08-17T10:29:26;19.60;99.90
27858;DHT22;16852;51.446;6.528;2023-08-17T10:31:29;19.50;99.90
27858;DHT22;16852;51.446;6.528;2023-08-17T10:33:30;19.60;99.90
27858;DHT22;16852;51.446;6.528;2023-08-17T10:35:32;19.50;99.90
27858;DHT22;16852;51.446;6.528;2023-08-17T10:37:33;19.40;99.90
27858;DHT22;16852;51.446;6.528;2023-08-17T10:39:34;19.50;99.90
27858;DHT22;16852;51.446;6.528;2023-08-17T10:41:49;19.60;99.90
27858;DHT22;16852;51.446;6.528;2023-08-17T10:43:57;19.60;99.90
27858;DHT22;16852;51.446;6.528;2023-08-17T10:46:15;19.60;99.90
27858;DHT22;16852;51.446;6.528;2023-08-17T10:50:24;19.80;99.90
27858;DHT22;16852;51.446;6.528;2023-08-17T10:52:27;20.00;99.90
27858;DHT22;16852;51.446;6.528;2023-08-17T10:54:47;20.10;99.90
27858;DHT22;16852;51.446;6.528;2023-08-17T10:56:48;20.10;99.90
27858;DHT22;16852;51.446;6.528;2023-08-17T10:58:51;20.20;99.90
27858;DHT22;16852;51.446;6.528;2023-08-17T11:00:55;20.30;99.90
27858;DHT22;16852;51.446;6.528;2023-08-17T11:05:00;20.50;99.90
27858;DHT22;16852;51.446;6.528;2023-08-17T11:07:02;20.50;99.90
27858;DHT22;16852;51.446;6.528;2023-08-17T11:09:07;20.50;99.90
27858;DHT22;16852;51.446;6.528;2023-08-17T11:11:14;20.40;99.90
27858;DHT22;16852;51.446;6.528;2023-08-17T11:13:15;20.30;99.90
27858;DHT22;16852;51.446;6.528;2023-08-17T11:15:16;20.30;99.90
27858;DHT22;16852;51.446;6.528;2023-08-17T11:17:16;20.30;99.90
27858;DHT22;16852;51.446;6.528;2023-08-17T11:19:21;20.40;99.90
27858;DHT22;16852;51.446;6.528;2023-08-17T11:21:21;20.50;99.90
27858;DHT22;16852;51.446;6.528;2023-08-17T11:23:23;20.50;99.90
27858;DHT22;16852;51.446;6.528;2023-08-17T11:25:25;20.40;99.90
27858;DHT22;16852;51.446;6.528;2023-08-17T11:27:30;20.50;99.90
27858;DHT22;16852;51.446;6.528;2023-08-17T11:29:31;20.60;99.90
27858;DHT22;16852;51.446;6.528;2023-08-17T11:31:32;20.50;99.90
27858;DHT22;16852;51.446;6.528;2023-08-17T11:33:36;20.60;99.90
27858;DHT22;16852;51.446;6.528;2023-08-17T11:35:38;20.70;99.90
27858;DHT22;16852;51.446;6.528;2023-08-17T11:37:39;20.80;99.90
27858;DHT22;16852;51.446;6.528;2023-08-17T11:39:40;20.80;99.90
27858;DHT22;16852;51.446;6.528;2023-08-17T11:41:41;20.80;99.90
27858;DHT22;16852;51.446;6.528;2023-08-17T11:43:42;20.80;99.90
27858;DHT22;16852;51.446;6.528;2023-08-17T11:45:43;20.90;99.90
27858;DHT22;16852;51.446;6.528;2023-08-17T11:47:44;21.00;99.90
27858;DHT22;16852;51.446;6.528;2023-08-17T11:49:49;20.90;99.90
27858;DHT22;16852;51.446;6.528;2023-08-17T11:51:53;21.00;99.90
27858;DHT22;16852;51.446;6.528;2023-08-17T11:53:54;21.00;99.90
27858;DHT22;16852;51.446;6.528;2023-08-17T11:55:54;21.10;99.90
27858;DHT22;16852;51.446;6.528;2023-08-17T11:57:55;21.00;99.90
27858;DHT22;16852;51.446;6.528;2023-08-17T11:59:57;20.90;99.90
27858;DHT22;16852;51.446;6.528;2023-08-17T12:01:58;20.80;99.90
27858;DHT22;16852;51.446;6.528;2023-08-17T12:03:59;20.80;99.90
27858;DHT22;16852;51.446;6.528;2023-08-17T12:06:00;20.70;99.90
27858;DHT22;16852;51.446;6.528;2023-08-17T12:08:00;20.70;99.90
27858;DHT22;16852;51.446;6.528;2023-08-17T12:10:05;20.80;99.90
27858;DHT22;16852;51.446;6.528;2023-08-17T12:12:06;20.80;99.90
27858;DHT22;16852;51.446;6.528;2023-08-17T12:14:10;20.90;99.90
27858;DHT22;16852;51.446;6.528;2023-08-17T12:16:15;21.00;99.90
27858;DHT22;16852;51.446;6.528;2023-08-17T12:18:16;21.00;99.90
27858;DHT22;16852;51.446;6.528;2023-08-17T12:20:20;21.10;99.90
27858;DHT22;16852;51.446;6.528;2023-08-17T12:22:24;21.00;99.90
27858;DHT22;16852;51.446;6.528;2023-08-17T12:24:25;20.90;99.90
27858;DHT22;16852;51.446;6.528;2023-08-17T12:26:25;20.90;99.90
27858;DHT22;16852;51.446;6.528;2023-08-17T12:28:27;21.00;99.90
27858;DHT22;16852;51.446;6.528;2023-08-17T12:30:30;21.00;99.90
27858;DHT22;16852;51.446;6.528;2023-08-17T12:32:32;21.10;99.90
27858;DHT22;16852;51.446;6.528;2023-08-17T12:34:33;21.20;99.90
27858;DHT22;16852;51.446;6.528;2023-08-17T12:36:34;21.30;99.90
27858;DHT22;16852;51.446;6.528;2023-08-17T12:38:38;21.30;99.90
27858;DHT22;16852;51.446;6.528;2023-08-17T12:40:42;21.40;99.90
27858;DHT22;16852;51.446;6.528;2023-08-17T12:42:43;21.40;99.90
27858;DHT22;16852;51.446;6.528;2023-08-17T12:44:43;21.40;99.90
27858;DHT22;16852;51.446;6.528;2023-08-17T12:46:44;21.40;99.90
27858;DHT22;16852;51.446;6.528;2023-08-17T12:48:45;21.50;99.90
27858;DHT22;16852;51.446;6.528;2023-08-17T12:50:45;21.50;99.90
27858;DHT22;16852;51.446;6.528;2023-08-17T12:52:46;21.50;99.90
27858;DHT22;16852;51.446;6.528;2023-08-17T12:54:46;21.60;99.90
27858;DHT22;16852;51.446;6.528;2023-08-17T12:56:47;21.30;99.90
27858;DHT22;16852;51.446;6.528;2023-08-17T12:58:48;21.20;99.90